Terminal Aerodrome Forecast
Issued by NWS Brownsville, TX

Home | Current Version | Previous Version | Text Only | Print | Product List | Glossary On
Versions: 1 2 3 4 5 6 7 8 9 10 11 12 13 14 15 16 17 18 19 20 21 22 23 24
000
FTUS44 KBRO 011200 AAA
TAFHRL
TAF AMD
KHRL 011220Z 0112/0212 VRB03KT 1SM BR SKC
      TEMPO 0112/0114 1/2SM FG VV001
     FM011500 16010G15KT P6SM SCT040
     FM020600 16010KT P6SM BKN015=

USA.gov is the U.S. government's official web portal to all federal, state and local government web resources and services.